Time;durP1;ratioP1;P1;durP2;ratioP2;P2;SDS_P1;SDS_P2;PMS_P1;PMS_P2;Temp;Humidity;BMP_temperature;BMP_pressure;BME280_temperature;BME280_humidity;BME280_pressure;Samples;Min_cycle;Max_cycle;Signal;HPM_P1;HPM_P2
2020/12/05 00:00:01;;;;;;;40.40;33.10;;;;;;;;;;4939268;29;20182;-76
2020/12/05 00:02:27;;;;;;;37.00;30.10;;;;;;;;;;4939722;29;20261;-75
2020/12/05 00:04:53;;;;;;;34.95;31.25;;;;;;;;;;4923084;29;20163;-77
2020/12/05 00:07:19;;;;;;;37.33;31.52;;;;;;;;;;4939752;29;20201;-77
2020/12/05 00:09:46;;;;;;;49.70;38.35;;;;;;;;;;4938681;29;20167;-76
2020/12/05 00:12:12;;;;;;;40.83;31.40;;;;;;;;;;4939437;29;20171;-77
2020/12/05 00:14:48;;;;;;;54.63;42.70;;;;;;;;;;4921971;29;20171;-76
2020/12/05 00:17:14;;;;;;;38.35;32.85;;;;;;;;;;4922028;29;20593;-77
2020/12/05 00:19:42;;;;;;;44.85;30.85;;;;;;;;;;4906325;29;20178;-76
2020/12/05 00:22:09;;;;;;;37.28;31.95;;;;;;;;;;4920969;29;20262;-76
2020/12/05 00:24:35;;;;;;;45.15;34.10;;;;;;;;;;4921506;29;20269;-76
2020/12/05 00:27:01;;;;;;;44.83;36.90;;;;;;;;;;4937270;29;20246;-76
2020/12/05 00:29:27;;;;;;;42.65;35.10;;;;;;;;;;4921620;29;20167;-77
2020/12/05 00:31:53;;;;;;;38.35;33.40;;;;;;;;;;4937998;29;20174;-77
2020/12/05 00:34:20;;;;;;;53.42;36.42;;;;;;;;;;4920992;29;20177;-77
2020/12/05 00:36:46;;;;;;;45.10;36.72;;;;;;;;;;4920875;29;20198;-77
2020/12/05 00:39:12;;;;;;;41.00;32.10;;;;;;;;;;4937439;29;20182;-77
2020/12/05 00:41:39;;;;;;;44.90;33.85;;;;;;;;;;4937493;29;20186;-77
2020/12/05 00:44:05;;;;;;;41.50;28.75;;;;;;;;;;4920838;29;20167;-77
2020/12/05 00:46:31;;;;;;;42.00;32.03;;;;;;;;;;4937390;29;20713;-77
2020/12/05 00:48:57;;;;;;;39.85;28.88;;;;;;;;;;4920251;29;20186;-76
2020/12/05 00:51:23;;;;;;;39.25;32.50;;;;;;;;;;4920216;29;20209;-76
2020/12/05 00:53:49;;;;;;;41.90;30.15;;;;;;;;;;4904685;29;20177;-77
2020/12/05 00:56:21;;;;;;;36.28;30.00;;;;;;;;;;4921488;29;20539;-77
2020/12/05 00:58:47;;;;;;;45.40;34.22;;;;;;;;;;4937181;29;20178;-76
2020/12/05 01:01:13;;;;;;;50.70;32.70;;;;;;;;;;4904229;29;20182;-76
2020/12/05 01:03:40;;;;;;;37.10;32.13;;;;;;;;;;4919898;29;20254;-76
2020/12/05 01:06:13;;;;;;;41.63;34.72;;;;;;;;;;4919829;29;20204;-77
2020/12/05 01:08:40;;;;;;;38.53;31.13;;;;;;;;;;4937186;29;20178;-75
2020/12/05 01:11:10;;;;;;;43.17;31.70;;;;;;;;;;4937164;29;20178;-75
2020/12/05 01:13:36;;;;;;;35.97;31.42;;;;;;;;;;4903706;29;20277;-76
2020/12/05 01:16:02;;;;;;;40.67;30.48;;;;;;;;;;4920064;29;20230;-75
2020/12/05 01:18:28;;;;;;;47.35;37.50;;;;;;;;;;4936827;29;20190;-78
2020/12/05 01:20:54;;;;;;;45.83;36.53;;;;;;;;;;4937352;29;20296;-76
2020/12/05 01:23:21;;;;;;;57.92;43.58;;;;;;;;;;4920259;29;20178;-76
2020/12/05 01:25:47;;;;;;;44.78;34.15;;;;;;;;;;4919891;29;20199;-76
2020/12/05 01:28:13;;;;;;;42.78;35.60;;;;;;;;;;4936588;29;20202;-77
2020/12/05 01:30:39;;;;;;;40.42;31.77;;;;;;;;;;4937692;29;20654;-77
2020/12/05 01:33:05;;;;;;;41.47;33.88;;;;;;;;;;4938201;29;20178;-76
2020/12/05 01:35:31;;;;;;;45.25;29.15;;;;;;;;;;4919791;29;20223;-77
2020/12/05 01:37:57;;;;;;;37.63;30.35;;;;;;;;;;4919988;29;20528;-77
2020/12/05 01:40:23;;;;;;;46.70;35.75;;;;;;;;;;4936866;29;20540;-77
2020/12/05 01:42:53;;;;;;;43.05;31.05;;;;;;;;;;4919188;29;20215;-77
2020/12/05 01:45:19;;;;;;;41.83;31.33;;;;;;;;;;4936350;29;20316;-77
2020/12/05 01:47:45;;;;;;;41.33;32.67;;;;;;;;;;4972064;23;20249;-75
2020/12/05 01:50:11;;;;;;;39.22;32.60;;;;;;;;;;4956129;29;20173;-76
2020/12/05 01:52:38;;;;;;;44.88;33.92;;;;;;;;;;4938817;29;20173;-75
2020/12/05 01:55:06;;;;;;;41.38;32.80;;;;;;;;;;4955838;28;20566;-75
2020/12/05 01:57:32;;;;;;;51.00;33.03;;;;;;;;;;4922479;29;20201;-75
2020/12/05 01:59:58;;;;;;;45.83;35.50;;;;;;;;;;4938710;29;20219;-76
2020/12/05 02:02:24;;;;;;;40.97;31.20;;;;;;;;;;4955773;28;20184;-76
2020/12/05 02:04:59;;;;;;;39.30;29.70;;;;;;;;;;4938393;29;20271;-76
2020/12/05 02:07:29;;;;;;;45.45;34.90;;;;;;;;;;4938080;29;20636;-75
2020/12/05 02:09:56;;;;;;;38.50;32.92;;;;;;;;;;4955470;28;20185;-76
2020/12/05 02:12:22;;;;;;;39.97;30.10;;;;;;;;;;4956155;29;20174;-76
2020/12/05 02:14:50;;;;;;;42.20;31.02;;;;;;;;;;4956034;29;20694;-76
2020/12/05 02:17:17;;;;;;;40.90;31.42;;;;;;;;;;4955670;28;20190;-76
2020/12/05 02:19:51;;;;;;;41.97;33.25;;;;;;;;;;4938172;29;20272;-75
2020/12/05 02:22:25;;;;;;;40.83;32.88;;;;;;;;;;4955642;28;20169;-75
2020/12/05 02:24:52;;;;;;;39.35;31.48;;;;;;;;;;4937970;29;20664;-75
2020/12/05 02:27:18;;;;;;;38.25;33.72;;;;;;;;;;4955244;28;20237;-75
2020/12/05 02:29:44;;;;;;;49.67;34.13;;;;;;;;;;4940082;29;20202;-75
2020/12/05 02:32:10;;;;;;;37.00;30.58;;;;;;;;;;4941863;29;20197;-75
2020/12/05 02:34:37;;;;;;;34.70;29.40;;;;;;;;;;4926091;29;20170;-76
2020/12/05 02:37:10;;;;;;;47.83;31.00;;;;;;;;;;4958401;28;20252;-75
2020/12/05 02:39:36;;;;;;;42.45;31.63;;;;;;;;;;4942259;29;20277;-75
2020/12/05 02:42:03;;;;;;;40.67;30.33;;;;;;;;;;4942050;29;20543;-77
2020/12/05 02:44:29;;;;;;;36.47;30.20;;;;;;;;;;4958647;29;20170;-75
2020/12/05 02:46:55;;;;;;;38.55;31.42;;;;;;;;;;4957945;28;20558;-76
2020/12/05 02:49:22;;;;;;;38.50;31.48;;;;;;;;;;4958254;29;20173;-75
2020/12/05 02:51:48;;;;;;;39.25;30.33;;;;;;;;;;4958444;28;20173;-75
2020/12/05 02:54:15;;;;;;;38.80;29.20;;;;;;;;;;4958948;28;20168;-75
2020/12/05 02:56:41;;;;;;;37.45;30.20;;;;;;;;;;4925602;28;20202;-75
2020/12/05 02:59:07;;;;;;;40.00;31.23;;;;;;;;;;4925656;29;20170;-75
2020/12/05 03:01:33;;;;;;;41.20;31.23;;;;;;;;;;4958422;29;20541;-75
2020/12/05 03:03:59;;;;;;;41.08;30.70;;;;;;;;;;4940846;29;20170;-75
2020/12/05 03:06:29;;;;;;;41.03;30.30;;;;;;;;;;4960354;28;20170;-75
2020/12/05 03:08:55;;;;;;;38.22;30.10;;;;;;;;;;4958245;28;20244;-76
2020/12/05 03:11:21;;;;;;;41.28;33.05;;;;;;;;;;4940793;29;20247;-76
2020/12/05 03:13:50;;;;;;;40.10;30.40;;;;;;;;;;4924840;29;20178;-76
2020/12/05 03:16:16;;;;;;;40.80;32.28;;;;;;;;;;4940832;29;20193;-75
2020/12/05 03:18:42;;;;;;;46.60;33.15;;;;;;;;;;4940847;29;20197;-75
2020/12/05 03:21:08;;;;;;;43.05;31.92;;;;;;;;;;4957831;28;20170;-74
2020/12/05 03:23:34;;;;;;;49.85;32.45;;;;;;;;;;4940545;29;20529;-75
2020/12/05 03:26:01;;;;;;;41.20;31.80;;;;;;;;;;4940711;29;20320;-76
2020/12/05 03:28:27;;;;;;;40.58;29.13;;;;;;;;;;4940348;29;20620;-76
2020/12/05 03:30:53;;;;;;;38.17;31.10;;;;;;;;;;4924277;29;20590;-75
2020/12/05 03:33:21;;;;;;;52.85;33.78;;;;;;;;;;4939985;29;20170;-76
2020/12/05 03:35:47;;;;;;;36.70;30.15;;;;;;;;;;4940331;29;20605;-76
2020/12/05 03:38:13;;;;;;;38.75;32.45;;;;;;;;;;4940153;29;20289;-75
2020/12/05 03:40:39;;;;;;;33.72;29.42;;;;;;;;;;4956419;28;20221;-75
2020/12/05 03:43:05;;;;;;;33.10;26.13;;;;;;;;;;4940405;29;20166;-75
2020/12/05 03:45:32;;;;;;;38.50;30.52;;;;;;;;;;4940530;29;20174;-75
2020/12/05 03:47:58;;;;;;;35.92;28.73;;;;;;;;;;4957699;28;20197;-75
2020/12/05 03:50:24;;;;;;;38.70;29.13;;;;;;;;;;4957872;29;20229;-75
2020/12/05 03:52:51;;;;;;;40.55;31.88;;;;;;;;;;4940207;29;20174;-75
2020/12/05 03:55:17;;;;;;;32.42;27.50;;;;;;;;;;4940219;29;20269;-75
2020/12/05 03:57:43;;;;;;;36.72;27.58;;;;;;;;;;4940017;29;20186;-74
2020/12/05 04:00:09;;;;;;;33.40;27.65;;;;;;;;;;4940068;29;20174;-75
2020/12/05 04:02:35;;;;;;;37.30;27.02;;;;;;;;;;4940154;29;20170;-75
2020/12/05 04:05:01;;;;;;;38.67;29.70;;;;;;;;;;4956970;29;20170;-75
2020/12/05 04:07:27;;;;;;;37.10;29.73;;;;;;;;;;4939843;29;20194;-75
2020/12/05 04:09:53;;;;;;;36.97;27.48;;;;;;;;;;4956848;29;20252;-75
2020/12/05 04:12:19;;;;;;;33.08;26.02;;;;;;;;;;4957470;28;20504;-75
2020/12/05 04:14:45;;;;;;;31.80;25.38;;;;;;;;;;4939455;29;20180;-74
2020/12/05 04:17:12;;;;;;;36.30;26.58;;;;;;;;;;4939399;29;20253;-74
2020/12/05 04:19:38;;;;;;;40.55;26.92;;;;;;;;;;4939750;29;20224;-74
2020/12/05 04:22:04;;;;;;;37.95;27.77;;;;;;;;;;4939601;29;20654;-75
2020/12/05 04:24:30;;;;;;;30.42;25.58;;;;;;;;;;4939762;29;20170;-75
2020/12/05 04:26:56;;;;;;;32.30;25.73;;;;;;;;;;4939873;29;20209;-74
2020/12/05 04:29:22;;;;;;;33.17;25.10;;;;;;;;;;4939919;29;20189;-74
2020/12/05 04:31:48;;;;;;;35.03;27.15;;;;;;;;;;4923607;29;20178;-74
2020/12/05 04:34:14;;;;;;;32.33;27.67;;;;;;;;;;4939175;29;20643;-75
2020/12/05 04:36:40;;;;;;;33.65;27.92;;;;;;;;;;4938977;28;20228;-75
2020/12/05 04:39:07;;;;;;;32.17;23.48;;;;;;;;;;4956775;28;20638;-75
2020/12/05 04:41:33;;;;;;;30.20;24.65;;;;;;;;;;4922926;29;20189;-75
2020/12/05 04:43:59;;;;;;;26.35;23.58;;;;;;;;;;4956739;28;20221;-75
2020/12/05 04:46:25;;;;;;;30.38;25.15;;;;;;;;;;4939084;28;20262;-75
2020/12/05 04:48:53;;;;;;;31.85;24.65;;;;;;;;;;4956542;28;20212;-76
2020/12/05 04:51:21;;;;;;;36.00;25.80;;;;;;;;;;4956419;28;20158;-76
2020/12/05 04:53:48;;;;;;;28.50;25.45;;;;;;;;;;4939793;29;20170;-75
2020/12/05 04:56:15;;;;;;;33.00;25.92;;;;;;;;;;4956208;29;20154;-75
2020/12/05 04:58:47;;;;;;;33.20;26.05;;;;;;;;;;4922811;29;20244;-76
2020/12/05 05:01:16;;;;;;;33.88;27.00;;;;;;;;;;4956540;29;20162;-76
2020/12/05 05:03:43;;;;;;;35.92;26.80;;;;;;;;;;4938666;29;20166;-76
2020/12/05 05:06:17;;;;;;;28.88;23.92;;;;;;;;;;4938785;29;20181;-76
2020/12/05 05:08:45;;;;;;;32.65;24.20;;;;;;;;;;4938551;29;20209;-75
2020/12/05 05:11:12;;;;;;;32.60;26.20;;;;;;;;;;4955778;28;20662;-75
2020/12/05 05:14:13;;;;;;;33.03;25.83;;;;;;;;;;4923391;29;20190;-75
2020/12/05 05:16:42;;;;;;;31.85;25.00;;;;;;;;;;4956080;28;20155;-75
2020/12/05 05:19:21;;;;;;;27.30;23.90;;;;;;;;;;4923213;29;20184;-75
2020/12/05 05:21:48;;;;;;;36.10;25.80;;;;;;;;;;4938989;29;20177;-75
2020/12/05 05:24:15;;;;;;;28.00;24.90;;;;;;;;;;4939067;29;20237;-76
2020/12/05 05:26:42;;;;;;;32.78;25.77;;;;;;;;;;4938657;28;20674;-75
2020/12/05 05:29:25;;;;;;;31.27;25.80;;;;;;;;;;4956132;29;20653;-75
2020/12/05 05:32:05;;;;;;;35.10;25.60;;;;;;;;;;4938580;29;20172;-75
2020/12/05 05:34:31;;;;;;;35.75;28.67;;;;;;;;;;4938478;29;20158;-75
2020/12/05 05:36:57;;;;;;;33.28;25.85;;;;;;;;;;4955494;28;20190;-74
2020/12/05 05:39:24;;;;;;;30.23;26.45;;;;;;;;;;4938522;29;20170;-75
2020/12/05 05:41:51;;;;;;;29.52;23.55;;;;;;;;;;4955301;29;20177;-75
2020/12/05 05:44:19;;;;;;;28.42;23.75;;;;;;;;;;4938381;29;20177;-75
2020/12/05 05:46:46;;;;;;;30.45;27.15;;;;;;;;;;4955385;28;20186;-75
2020/12/05 05:49:13;;;;;;;33.53;26.20;;;;;;;;;;4922703;29;20658;-75
2020/12/05 05:51:40;;;;;;;33.88;26.73;;;;;;;;;;4956128;28;20257;-74
2020/12/05 05:54:26;;;;;;;34.72;28.13;;;;;;;;;;4955726;29;20165;-75
2020/12/05 05:57:13;;;;;;;33.78;25.38;;;;;;;;;;4956006;28;20268;-76
2020/12/05 05:59:43;;;;;;;31.45;26.83;;;;;;;;;;4938573;29;20264;-76
2020/12/05 06:02:10;;;;;;;33.85;25.83;;;;;;;;;;4938039;29;20682;-76
2020/12/05 06:04:39;;;;;;;33.15;24.63;;;;;;;;;;4940403;29;20582;-76
2020/12/05 06:07:07;;;;;;;38.88;28.85;;;;;;;;;;4941709;29;20752;-76
2020/12/05 06:09:39;;;;;;;33.30;26.70;;;;;;;;;;4959089;29;20189;-75
2020/12/05 06:12:06;;;;;;;31.13;27.70;;;;;;;;;;4941667;29;20220;-75
2020/12/05 06:14:32;;;;;;;34.88;27.13;;;;;;;;;;4941582;29;20658;-77
2020/12/05 06:17:00;;;;;;;37.58;27.75;;;;;;;;;;4925421;29;20573;-75
2020/12/05 06:19:26;;;;;;;31.52;25.77;;;;;;;;;;4941123;29;20178;-75
2020/12/05 06:21:53;;;;;;;34.13;26.33;;;;;;;;;;4926595;29;20549;-75
2020/12/05 06:24:39;;;;;;;33.03;27.00;;;;;;;;;;4942212;29;20178;-76
2020/12/05 06:27:07;;;;;;;33.22;29.67;;;;;;;;;;4958968;28;20226;-74
2020/12/05 06:29:33;;;;;;;38.00;27.33;;;;;;;;;;4941353;29;20174;-75
2020/12/05 06:31:59;;;;;;;44.92;32.90;;;;;;;;;;4941521;29;20174;-75
2020/12/05 06:34:42;;;;;;;38.33;28.92;;;;;;;;;;4925747;29;20170;-75
2020/12/05 06:37:12;;;;;;;31.73;26.65;;;;;;;;;;4958699;28;20201;-74
2020/12/05 06:39:39;;;;;;;37.88;27.10;;;;;;;;;;4958375;29;20165;-75
2020/12/05 06:42:17;;;;;;;34.53;24.70;;;;;;;;;;4941238;29;20166;-74
2020/12/05 06:44:43;;;;;;;32.30;26.17;;;;;;;;;;4925055;29;20253;-75
2020/12/05 06:47:21;;;;;;;30.55;26.23;;;;;;;;;;4940804;28;20217;-75
2020/12/05 06:49:49;;;;;;;29.80;25.83;;;;;;;;;;4958310;29;20519;-74
2020/12/05 06:52:27;;;;;;;30.48;27.27;;;;;;;;;;4940715;29;20173;-75
2020/12/05 06:55:08;;;;;;;34.88;26.00;;;;;;;;;;4958176;28;20204;-74
2020/12/05 06:57:35;;;;;;;38.20;24.55;;;;;;;;;;4958007;28;20284;-74
2020/12/05 07:00:17;;;;;;;46.50;26.15;;;;;;;;;;4958324;29;20213;-75
2020/12/05 07:02:50;;;;;;;32.30;27.85;;;;;;;;;;4958216;29;20157;-75
2020/12/05 07:05:16;;;;;;;31.88;27.95;;;;;;;;;;4941227;29;20178;-74
2020/12/05 07:07:54;;;;;;;34.33;27.85;;;;;;;;;;4958635;28;20201;-75
2020/12/05 07:10:21;;;;;;;33.05;27.35;;;;;;;;;;4959009;29;20150;-75
2020/12/05 07:12:47;;;;;;;32.50;24.05;;;;;;;;;;4958430;29;20178;-76
2020/12/05 07:15:27;;;;;;;33.08;24.27;;;;;;;;;;4941133;29;20224;-74
2020/12/05 07:17:54;;;;;;;33.08;24.75;;;;;;;;;;4958007;28;20197;-76
2020/12/05 07:20:20;;;;;;;34.47;24.65;;;;;;;;;;4958303;29;20181;-75
2020/12/05 07:22:50;;;;;;;25.35;22.60;;;;;;;;;;4941287;29;20603;-74
2020/12/05 07:25:16;;;;;;;31.40;25.02;;;;;;;;;;4940692;29;20234;-74
2020/12/05 07:27:42;;;;;;;31.67;25.60;;;;;;;;;;4958316;28;20198;-74
2020/12/05 07:30:09;;;;;;;29.40;25.08;;;;;;;;;;4957935;29;20192;-75
2020/12/05 07:32:36;;;;;;;28.27;23.17;;;;;;;;;;4941407;29;20169;-74
2020/12/05 07:35:15;;;;;;;29.48;22.60;;;;;;;;;;4957522;29;20166;-74
2020/12/05 07:37:42;;;;;;;30.08;22.75;;;;;;;;;;4957356;28;20189;-75
2020/12/05 07:40:08;;;;;;;31.38;25.85;;;;;;;;;;4957455;29;20634;-74
2020/12/05 07:42:38;;;;;;;28.63;22.15;;;;;;;;;;4957580;28;20170;-75
2020/12/05 07:45:05;;;;;;;28.80;24.42;;;;;;;;;;4957750;28;20173;-75
2020/12/05 07:47:32;;;;;;;27.05;23.63;;;;;;;;;;4957511;28;20559;-74
2020/12/05 07:49:59;;;;;;;30.23;25.02;;;;;;;;;;4957246;28;20170;-74
2020/12/05 07:52:26;;;;;;;29.30;24.05;;;;;;;;;;4940051;29;20181;-76
2020/12/05 07:54:55;;;;;;;31.50;26.40;;;;;;;;;;4940355;29;20611;-74
2020/12/05 07:57:22;;;;;;;29.38;25.67;;;;;;;;;;4957572;28;20639;-75
2020/12/05 07:59:48;;;;;;;28.00;23.90;;;;;;;;;;4957336;29;20176;-75
2020/12/05 08:02:17;;;;;;;26.00;21.95;;;;;;;;;;4957471;28;20180;-75
2020/12/05 08:04:47;;;;;;;25.85;22.67;;;;;;;;;;4957476;29;20198;-76
2020/12/05 08:07:32;;;;;;;32.00;25.00;;;;;;;;;;4939914;29;20201;-75
2020/12/05 08:09:58;;;;;;;28.52;23.20;;;;;;;;;;4958313;29;20159;-75
2020/12/05 08:12:50;;;;;;;194.80;141.40;;;;;;;;;;4939995;29;20167;-75
2020/12/05 08:15:21;;;;;;;31.85;25.13;;;;;;;;;;4918407;29;20178;-75
2020/12/05 08:17:49;;;;;;;28.98;22.83;;;;;;;;;;4957370;28;20237;-75
2020/12/05 08:20:15;;;;;;;31.30;25.90;;;;;;;;;;4957129;29;20257;-74
2020/12/05 08:22:41;;;;;;;32.67;27.95;;;;;;;;;;4956772;28;20177;-74
2020/12/05 08:25:09;;;;;;;36.95;26.13;;;;;;;;;;4939958;29;20181;-75
2020/12/05 08:27:36;;;;;;;31.70;25.88;;;;;;;;;;4939414;29;20252;-75
2020/12/05 08:30:03;;;;;;;30.60;24.80;;;;;;;;;;4956623;28;20177;-74
2020/12/05 08:32:30;;;;;;;27.65;21.58;;;;;;;;;;4939397;29;20173;-75
2020/12/05 08:35:03;;;;;;;29.77;23.67;;;;;;;;;;4923632;29;20185;-75
2020/12/05 08:37:31;;;;;;;30.67;23.70;;;;;;;;;;4939316;29;20201;-75
2020/12/05 08:39:58;;;;;;;31.42;22.52;;;;;;;;;;4956763;29;20310;-75
2020/12/05 08:42:24;;;;;;;27.75;23.08;;;;;;;;;;4939165;29;20590;-76
2020/12/05 08:44:50;;;;;;;25.25;22.58;;;;;;;;;;4957146;29;20158;-76
2020/12/05 08:47:16;;;;;;;27.08;23.38;;;;;;;;;;4956264;28;20666;-76
2020/12/05 08:49:43;;;;;;;31.00;24.08;;;;;;;;;;4939231;29;20221;-76
2020/12/05 08:52:10;;;;;;;25.20;22.10;;;;;;;;;;4939614;29;20170;-76
2020/12/05 08:54:46;;;;;;;30.00;25.15;;;;;;;;;;4923786;29;20169;-76
2020/12/05 08:57:13;;;;;;;24.45;22.02;;;;;;;;;;4956674;28;20212;-76
2020/12/05 08:59:40;;;;;;;28.35;24.13;;;;;;;;;;4956748;29;20527;-76
2020/12/05 09:02:06;;;;;;;30.20;24.38;;;;;;;;;;4942851;29;20166;-77
2020/12/05 09:04:34;;;;;;;29.42;23.05;;;;;;;;;;4940694;29;20182;-78
2020/12/05 09:07:20;;;;;;;26.98;24.27;;;;;;;;;;4939469;29;20285;-78
2020/12/05 09:09:47;;;;;;;24.90;22.10;;;;;;;;;;4923232;29;20626;-77
2020/12/05 09:12:14;;;;;;;25.52;18.92;;;;;;;;;;4956616;28;20251;-77
2020/12/05 09:14:41;;;;;;;27.95;21.13;;;;;;;;;;4956858;29;20228;-77
2020/12/05 09:17:31;;;;;;;24.60;19.95;;;;;;;;;;4956818;28;20768;-78
2020/12/05 09:20:16;;;;;;;21.35;19.17;;;;;;;;;;4935833;29;20650;-77
2020/12/05 09:22:54;;;;;;;22.25;20.10;;;;;;;;;;4928598;29;20185;-78
2020/12/05 09:25:32;;;;;;;22.13;19.80;;;;;;;;;;4963058;29;20165;-78
2020/12/05 09:28:02;;;;;;;22.67;20.45;;;;;;;;;;4958315;28;20632;-77
2020/12/05 09:30:30;;;;;;;22.45;19.73;;;;;;;;;;4957223;28;20173;-77
2020/12/05 09:32:57;;;;;;;22.40;19.60;;;;;;;;;;4956450;28;20260;-77
2020/12/05 09:35:25;;;;;;;26.17;19.23;;;;;;;;;;4940243;29;20221;-77
2020/12/05 09:37:51;;;;;;;23.30;21.00;;;;;;;;;;4956911;28;20186;-78
2020/12/05 09:40:19;;;;;;;24.33;18.95;;;;;;;;;;4946059;29;20176;-77
2020/12/05 09:42:45;;;;;;;22.60;19.95;;;;;;;;;;4944284;29;20526;-78
2020/12/05 09:45:12;;;;;;;21.48;17.88;;;;;;;;;;4962082;28;20169;-78
2020/12/05 09:47:40;;;;;;;22.00;19.23;;;;;;;;;;4961411;28;20202;-77
2020/12/05 09:50:06;;;;;;;21.75;18.38;;;;;;;;;;4964311;28;20174;-78
2020/12/05 09:52:32;;;;;;;18.65;16.83;;;;;;;;;;4947363;29;20177;-78
2020/12/05 09:54:58;;;;;;;20.80;18.70;;;;;;;;;;4948524;29;20182;-78
2020/12/05 09:57:24;;;;;;;22.42;18.17;;;;;;;;;;4966156;28;20194;-78
2020/12/05 09:59:51;;;;;;;21.25;19.05;;;;;;;;;;4948402;29;20178;-78
2020/12/05 10:02:17;;;;;;;22.27;20.08;;;;;;;;;;4947514;29;20245;-78
2020/12/05 10:04:43;;;;;;;21.38;18.10;;;;;;;;;;4962749;29;20193;-78
2020/12/05 10:07:09;;;;;;;22.60;18.83;;;;;;;;;;4962645;28;20206;-78
2020/12/05 10:09:35;;;;;;;16.95;15.18;;;;;;;;;;4963665;29;20158;-78
2020/12/05 10:12:02;;;;;;;20.27;16.30;;;;;;;;;;4965069;28;20527;-77
2020/12/05 10:14:28;;;;;;;20.20;18.20;;;;;;;;;;4944375;29;20631;-77
2020/12/05 10:16:54;;;;;;;18.17;16.47;;;;;;;;;;4963586;28;20224;-79
2020/12/05 10:19:20;;;;;;;21.13;18.83;;;;;;;;;;4946763;29;20757;-79
2020/12/05 10:21:49;;;;;;;19.67;16.97;;;;;;;;;;4964021;29;20417;-78
2020/12/05 10:24:17;;;;;;;18.50;16.60;;;;;;;;;;4963460;28;20468;-77
2020/12/05 10:26:53;;;;;;;19.30;17.00;;;;;;;;;;4945985;28;20861;-77
2020/12/05 10:29:22;;;;;;;25.53;21.70;;;;;;;;;;4963558;29;20393;-78
2020/12/05 10:31:49;;;;;;;19.63;17.63;;;;;;;;;;4946129;29;20434;-78
2020/12/05 10:34:16;;;;;;;25.67;17.30;;;;;;;;;;4962532;29;20404;-78
2020/12/05 10:36:42;;;;;;;18.30;16.37;;;;;;;;;;4947285;28;20407;-79
2020/12/05 10:39:10;;;;;;;19.77;16.83;;;;;;;;;;4946903;29;20409;-78
2020/12/05 10:41:39;;;;;;;16.40;14.80;;;;;;;;;;4963869;29;20406;-78
2020/12/05 10:44:05;;;;;;;18.47;16.20;;;;;;;;;;4962927;29;20401;-78
2020/12/05 10:46:32;;;;;;;23.93;17.97;;;;;;;;;;4946881;28;20449;-78
2020/12/05 10:48:58;;;;;;;14.20;12.90;;;;;;;;;;4963191;28;20468;-78
2020/12/05 10:51:25;;;;;;;15.73;14.03;;;;;;;;;;4930057;29;20402;-77
2020/12/05 10:54:01;;;;;;;14.87;13.17;;;;;;;;;;4947362;29;20440;-79
2020/12/05 10:56:27;;;;;;;14.77;13.33;;;;;;;;;;4946651;28;20427;-79
2020/12/05 10:58:53;;;;;;;18.13;14.77;;;;;;;;;;4966047;28;20484;-81
2020/12/05 11:01:23;;;;;;;16.70;14.47;;;;;;;;;;4948791;29;20421;-78
2020/12/05 11:03:49;;;;;;;17.30;14.70;;;;;;;;;;4964737;28;21008;-79
2020/12/05 11:06:28;;;;;;;18.53;15.30;;;;;;;;;;4964741;29;20408;-78
2020/12/05 11:08:57;;;;;;;18.50;16.57;;;;;;;;;;4946548;29;20600;-79
2020/12/05 11:11:24;;;;;;;17.60;14.90;;;;;;;;;;4965179;29;20416;-81
2020/12/05 11:13:50;;;;;;;16.70;13.70;;;;;;;;;;4947441;29;20174;-79
2020/12/05 11:16:20;;;;;;;17.13;13.27;;;;;;;;;;4965127;29;20420;-79
2020/12/05 11:18:46;;;;;;;14.50;13.00;;;;;;;;;;4948358;29;20964;-79
2020/12/05 11:21:12;;;;;;;18.23;16.37;;;;;;;;;;4949580;29;20457;-80
2020/12/05 11:23:44;;;;;;;16.50;14.57;;;;;;;;;;4948320;29;20500;-79
2020/12/05 11:26:23;;;;;;;15.03;13.00;;;;;;;;;;4949677;29;20393;-80
2020/12/05 11:28:50;;;;;;;15.10;13.63;;;;;;;;;;4947354;29;21035;-78
2020/12/05 11:31:16;;;;;;;15.67;13.63;;;;;;;;;;4965044;29;20402;-79
2020/12/05 11:33:43;;;;;;;19.13;14.73;;;;;;;;;;4947694;29;20426;-79
2020/12/05 11:36:09;;;;;;;16.67;14.87;;;;;;;;;;4965164;28;20433;-79
2020/12/05 11:38:35;;;;;;;15.77;14.17;;;;;;;;;;4947621;29;20452;-79
2020/12/05 11:41:07;;;;;;;22.83;13.87;;;;;;;;;;4946909;29;20508;-80
2020/12/05 11:43:36;;;;;;;19.60;15.33;;;;;;;;;;4946396;29;20441;-79
2020/12/05 11:46:02;;;;;;;17.10;15.30;;;;;;;;;;4967069;28;20895;-79
2020/12/05 11:48:28;;;;;;;21.20;17.30;;;;;;;;;;4946612;29;20460;-78
2020/12/05 11:50:54;;;;;;;21.40;16.77;;;;;;;;;;4947523;29;20428;-79
2020/12/05 11:53:20;;;;;;;15.20;13.17;;;;;;;;;;4947437;29;20457;-79
2020/12/05 11:56:05;;;;;;;21.00;14.30;;;;;;;;;;4947822;29;20410;-80
2020/12/05 11:58:32;;;;;;;17.17;14.90;;;;;;;;;;4948960;29;20429;-80
2020/12/05 12:01:04;;;;;;;18.10;15.60;;;;;;;;;;4931690;29;20441;-79
2020/12/05 12:03:31;;;;;;;18.93;15.20;;;;;;;;;;4943064;29;20509;-78
2020/12/05 12:05:58;;;;;;;18.37;15.20;;;;;;;;;;4929647;29;20546;-79
2020/12/05 12:08:24;;;;;;;16.27;14.10;;;;;;;;;;4946947;29;20449;-79
2020/12/05 12:10:50;;;;;;;16.40;13.00;;;;;;;;;;4947191;29;20763;-80
2020/12/05 12:13:28;;;;;;;22.23;17.20;;;;;;;;;;4963977;29;20417;-79
2020/12/05 12:15:54;;;;;;;22.70;16.10;;;;;;;;;;4963055;29;20401;-79
2020/12/05 12:18:20;;;;;;;19.73;16.10;;;;;;;;;;4945246;29;20528;-79
2020/12/05 12:20:46;;;;;;;18.57;15.07;;;;;;;;;;4946393;29;20427;-80
2020/12/05 12:23:13;;;;;;;21.30;14.83;;;;;;;;;;4931944;29;20457;-79
2020/12/05 12:25:39;;;;;;;17.47;15.27;;;;;;;;;;4962750;29;20921;-79
2020/12/05 12:28:05;;;;;;;18.03;15.37;;;;;;;;;;4945780;29;20450;-79
2020/12/05 12:30:31;;;;;;;19.13;16.03;;;;;;;;;;4947079;29;20457;-80
2020/12/05 12:32:58;;;;;;;15.27;13.80;;;;;;;;;;4962873;29;20489;-83
2020/12/05 12:35:24;;;;;;;19.90;17.03;;;;;;;;;;4946814;29;20421;-79
2020/12/05 12:37:50;;;;;;;18.30;16.27;;;;;;;;;;4963023;28;20442;-81
2020/12/05 12:40:16;;;;;;;16.10;14.50;;;;;;;;;;4946791;29;20911;-80
2020/12/05 12:42:43;;;;;;;19.03;15.37;;;;;;;;;;4947114;29;20914;-79
2020/12/05 12:45:09;;;;;;;20.43;15.97;;;;;;;;;;4963780;29;20409;-80
2020/12/05 12:47:40;;;;;;;26.20;20.57;;;;;;;;;;4962403;28;20602;-79
2020/12/05 12:50:07;;;;;;;22.77;16.73;;;;;;;;;;4962553;29;20428;-79
2020/12/05 12:52:34;;;;;;;24.10;18.00;;;;;;;;;;4962283;28;20429;-79
2020/12/05 12:55:00;;;;;;;20.57;18.30;;;;;;;;;;4944969;29;20420;-80
2020/12/05 12:57:33;;;;;;;19.33;17.37;;;;;;;;;;4928650;29;20516;-79
2020/12/05 12:59:59;;;;;;;17.37;15.57;;;;;;;;;;4945835;29;20800;-80
2020/12/05 13:02:26;;;;;;;19.70;16.40;;;;;;;;;;4963248;29;20550;-79
2020/12/05 13:05:02;;;;;;;;;;;;;;;;;;;;;
2020/12/05 13:07:28;;;;;;;22.00;17.77;;;;;;;;;;4963913;28;20480;-80
2020/12/05 13:09:54;;;;;;;25.00;19.07;;;;;;;;;;4963489;29;20477;-79
2020/12/05 13:12:20;;;;;;;18.53;16.57;;;;;;;;;;4946299;28;20445;-79
2020/12/05 13:14:47;;;;;;;20.33;17.43;;;;;;;;;;4945465;29;20434;-79
2020/12/05 13:17:13;;;;;;;17.17;15.40;;;;;;;;;;4946228;29;20445;-79
2020/12/05 13:19:41;;;;;;;19.60;16.20;;;;;;;;;;4962000;29;20421;-80
2020/12/05 13:22:07;;;;;;;18.00;16.20;;;;;;;;;;4945755;29;20453;-80
2020/12/05 13:24:33;;;;;;;18.87;16.87;;;;;;;;;;4963235;29;20578;-78
2020/12/05 13:27:00;;;;;;;19.07;15.83;;;;;;;;;;4961923;28;20517;-80
2020/12/05 13:29:26;;;;;;;19.50;16.60;;;;;;;;;;4944775;29;20930;-79
2020/12/05 13:31:52;;;;;;;21.40;15.70;;;;;;;;;;4943786;29;20410;-79
2020/12/05 13:34:18;;;;;;;26.37;18.83;;;;;;;;;;4962808;28;20449;-80
2020/12/05 13:36:44;;;;;;;20.37;18.27;;;;;;;;;;4948810;28;20452;-79
2020/12/05 13:39:13;;;;;;;21.57;16.80;;;;;;;;;;4930950;29;20741;-79
2020/12/05 13:41:39;;;;;;;21.50;16.90;;;;;;;;;;4945924;29;20914;-80
2020/12/05 13:44:06;;;;;;;22.50;17.80;;;;;;;;;;4944411;29;20512;-79
2020/12/05 13:46:32;;;;;;;21.20;18.10;;;;;;;;;;4944484;28;20468;-79
2020/12/05 13:48:58;;;;;;;25.00;21.53;;;;;;;;;;4944152;29;20461;-78
2020/12/05 13:51:33;;;;;;;23.13;19.00;;;;;;;;;;4943628;29;20429;-79
2020/12/05 13:53:59;;;;;;;26.90;20.53;;;;;;;;;;4943457;29;20413;-79
2020/12/05 13:56:26;;;;;;;23.13;18.60;;;;;;;;;;4944067;28;20429;-79
2020/12/05 13:58:52;;;;;;;30.07;21.60;;;;;;;;;;4960804;29;20549;-79
2020/12/05 14:01:19;;;;;;;26.57;22.17;;;;;;;;;;4927068;29;20767;-78
2020/12/05 14:03:45;;;;;;;23.00;20.27;;;;;;;;;;4944233;29;20768;-79
2020/12/05 14:06:11;;;;;;;22.33;18.70;;;;;;;;;;4944088;29;20500;-79
2020/12/05 14:08:38;;;;;;;24.33;21.10;;;;;;;;;;4945207;29;20544;-79
2020/12/05 14:11:04;;;;;;;31.13;23.33;;;;;;;;;;4961281;28;20508;-80
2020/12/05 14:13:32;;;;;;;33.07;22.17;;;;;;;;;;4960868;28;20473;-80
2020/12/05 14:15:58;;;;;;;26.87;23.07;;;;;;;;;;4944824;29;20414;-79
2020/12/05 14:18:24;;;;;;;25.00;21.67;;;;;;;;;;4961135;28;20476;-79
2020/12/05 14:20:50;;;;;;;29.47;22.67;;;;;;;;;;4943387;29;20433;-79
2020/12/05 14:23:16;;;;;;;25.57;22.87;;;;;;;;;;4960616;28;20437;-79